createdAt,value
2022-11-09T00:01:28.584Z,10.98
2022-11-09T00:03:58.506Z,11.93
2022-11-09T00:06:26.954Z,12.07
2022-11-09T00:09:06.838Z,11.75
2022-11-09T00:11:43.260Z,12.02
2022-11-09T00:14:16.200Z,12.48
2022-11-09T00:16:49.570Z,11.55
2022-11-09T00:19:16.534Z,11.27
2022-11-09T00:21:49.525Z,11.82
2022-11-09T00:24:16.599Z,10.27
2022-11-09T00:26:50.571Z,10.95
2022-11-09T00:29:17.525Z,10.88
2022-11-09T00:31:50.553Z,10.05
2022-11-09T00:34:17.726Z,10.98
2022-11-09T00:36:51.636Z,10.68
2022-11-09T00:39:18.715Z,10.13
2022-11-09T00:41:52.540Z,9.80
2022-11-09T00:44:19.484Z,9.77
2022-11-09T00:46:46.456Z,10.57
2022-11-09T00:49:19.542Z,11.55
2022-11-09T00:51:46.701Z,10.77
2022-11-09T00:54:20.580Z,10.68
2022-11-09T00:56:47.539Z,14.20
2022-11-09T00:59:21.610Z,13.07
2022-11-09T01:01:48.694Z,11.23
2022-11-09T01:04:15.733Z,10.98
2022-11-09T01:06:49.670Z,9.95
2022-11-09T01:09:16.627Z,10.57
2022-11-09T01:11:50.668Z,11.40
2022-11-09T01:14:17.875Z,12.30
2022-11-09T01:16:51.543Z,10.95
2022-11-09T01:19:18.490Z,10.80
2022-11-09T01:21:51.608Z,10.40
2022-11-09T01:24:18.564Z,11.45
2022-11-09T01:26:51.545Z,11.88
2022-11-09T01:29:18.497Z,11.68
2022-11-09T01:31:51.581Z,11.68
2022-11-09T01:34:18.665Z,12.32
2022-11-09T01:36:52.597Z,11.43
2022-11-09T01:39:19.818Z,10.98
2022-11-09T01:41:53.602Z,10.85
2022-11-09T01:44:20.879Z,11.32
2022-11-09T01:47:29.649Z,11.27
2022-11-09T01:49:58.820Z,10.93
2022-11-09T01:52:41.561Z,11.80
2022-11-09T01:55:13.359Z,11.18
2022-11-09T01:57:51.597Z,11.93
2022-11-09T02:00:18.771Z,11.50
2022-11-09T02:03:12.286Z,11.35
2022-11-09T02:05:40.519Z,10.98
2022-11-09T02:08:14.568Z,11.38
2022-11-09T02:11:09.640Z,10.52
2022-11-09T02:13:42.961Z,12.13
2022-11-09T02:16:17.598Z,10.85
2022-11-09T02:19:02.653Z,10.52
2022-11-09T02:21:30.805Z,11.10
2022-11-09T02:24:04.617Z,11.20
2022-11-09T02:26:50.701Z,10.95
2022-11-09T02:29:45.581Z,11.52
2022-11-09T02:32:22.188Z,9.65
2022-11-09T02:34:55.574Z,10.48
2022-11-09T02:37:29.981Z,10.77
2022-11-09T02:40:04.580Z,11.77
2022-11-09T02:42:37.646Z,10.57
2022-11-09T02:45:04.889Z,10.63
2022-11-09T02:47:38.640Z,9.88
2022-11-09T02:50:12.613Z,10.38
2022-11-09T02:52:39.543Z,10.48
2022-11-09T02:55:13.623Z,9.27
2022-11-09T02:57:47.600Z,9.38
2022-11-09T03:00:14.961Z,9.70
2022-11-09T03:02:48.652Z,9.77
2022-11-09T03:05:15.688Z,9.30
2022-11-09T03:07:49.596Z,9.27
2022-11-09T03:10:16.868Z,9.13
2022-11-09T03:12:50.600Z,10.00
2022-11-09T03:15:24.627Z,8.45
2022-11-09T03:17:51.651Z,9.43
2022-11-09T03:20:25.656Z,8.32
2022-11-09T03:22:53.735Z,8.30
2022-11-09T03:25:27.657Z,8.98
2022-11-09T03:28:02.086Z,8.43
2022-11-09T03:30:35.649Z,8.02
2022-11-09T03:33:06.634Z,8.48
2022-11-09T03:35:39.617Z,7.78
2022-11-09T03:38:06.895Z,7.53
2022-11-09T03:40:40.698Z,8.60
2022-11-09T03:43:07.681Z,8.38
2022-11-09T03:45:41.672Z,8.43
2022-11-09T03:48:08.706Z,8.13
2022-11-09T03:50:42.710Z,8.05
2022-11-09T03:53:09.966Z,7.78
2022-11-09T03:55:43.640Z,8.52
2022-11-09T03:58:10.679Z,8.07
2022-11-09T04:00:44.714Z,8.45
2022-11-09T04:03:11.720Z,7.75
2022-11-09T04:05:45.628Z,7.18
2022-11-09T04:08:19.406Z,8.00
2022-11-09T04:10:52.593Z,10.90
2022-11-09T04:13:19.687Z,9.93
2022-11-09T04:15:46.809Z,9.30
2022-11-09T04:18:21.579Z,8.90
2022-11-09T04:20:54.724Z,8.65
2022-11-09T04:23:21.997Z,8.95
2022-11-09T04:25:49.218Z,8.60
2022-11-09T04:28:22.668Z,8.70
2022-11-09T04:30:49.573Z,8.85
2022-11-09T04:33:22.895Z,7.72
2022-11-09T04:35:50.067Z,9.10
2022-11-09T04:38:23.696Z,9.63
2022-11-09T04:40:56.662Z,10.35
2022-11-09T04:43:23.603Z,9.85
2022-11-09T04:45:56.709Z,8.88
2022-11-09T04:48:30.700Z,8.50
2022-11-09T04:51:01.802Z,7.93
2022-11-09T04:53:35.631Z,7.93
2022-11-09T04:56:03.132Z,7.90
2022-11-09T04:58:36.653Z,7.53
2022-11-09T05:01:09.373Z,7.75
2022-11-09T05:03:42.762Z,7.93
2022-11-09T05:06:16.636Z,7.55
2022-11-09T05:08:50.664Z,7.05
2022-11-09T05:11:17.867Z,8.02
2022-11-09T05:13:51.778Z,7.95
2022-11-09T05:16:18.867Z,7.57
2022-11-09T05:18:52.763Z,6.75
2022-11-09T05:21:19.726Z,7.30
2022-11-09T05:23:53.679Z,7.25
2022-11-09T05:26:20.732Z,7.60
2022-11-09T05:28:54.674Z,7.38
2022-11-09T05:31:21.634Z,6.65
2022-11-09T05:33:56.657Z,7.07
2022-11-09T05:36:29.732Z,7.43
2022-11-09T05:38:57.811Z,8.02
2022-11-09T05:41:31.695Z,7.72
2022-11-09T05:44:05.692Z,7.20
2022-11-09T05:46:38.666Z,8.48
2022-11-09T05:49:05.660Z,9.48
2022-11-09T05:51:38.689Z,7.55
2022-11-09T05:54:05.685Z,7.72
2022-11-09T05:56:38.667Z,7.80
2022-11-09T05:59:05.606Z,6.78
2022-11-09T06:01:38.734Z,6.85
2022-11-09T06:04:05.681Z,7.70
2022-11-09T06:06:38.734Z,7.57
2022-11-09T06:09:05.694Z,7.47
2022-11-09T06:11:38.736Z,6.90
2022-11-09T06:14:05.702Z,10.98
2022-11-09T06:16:38.783Z,13.10
2022-11-09T06:19:05.767Z,11.77
2022-11-09T06:21:38.709Z,8.50
2022-11-09T06:24:05.945Z,8.00
2022-11-09T06:26:39.709Z,7.05
2022-11-09T06:29:06.786Z,7.47
2022-11-09T06:31:39.738Z,7.45
2022-11-09T06:34:06.673Z,8.23
2022-11-09T06:36:40.087Z,7.85
2022-11-09T06:39:13.710Z,7.13
2022-11-09T06:41:47.769Z,7.93
2022-11-09T06:44:21.712Z,7.13
2022-11-09T06:46:48.717Z,7.35
2022-11-09T06:49:21.752Z,7.57
2022-11-09T06:51:48.677Z,8.43
2022-11-09T06:54:21.696Z,8.05
2022-11-09T06:56:48.687Z,7.50
2022-11-09T06:59:21.685Z,7.10
2022-11-09T07:01:57.617Z,7.78
2022-11-09T07:04:34.714Z,7.60
2022-11-09T07:07:07.803Z,7.43
2022-11-09T07:09:34.839Z,7.38
2022-11-09T07:12:08.702Z,8.00
2022-11-09T07:14:35.925Z,8.52
2022-11-09T07:17:09.749Z,7.65
2022-11-09T07:19:36.639Z,6.90
2022-11-09T07:22:09.754Z,7.40
2022-11-09T07:24:36.591Z,7.00
2022-11-09T07:27:10.689Z,7.20
2022-11-09T07:29:37.626Z,7.38
2022-11-09T07:32:11.727Z,7.22
2022-11-09T07:34:44.796Z,6.05
2022-11-09T07:37:11.706Z,6.65
2022-11-09T07:39:44.810Z,6.53
2022-11-09T07:42:11.765Z,7.50
2022-11-09T07:44:44.741Z,7.03
2022-11-09T07:47:15.749Z,6.57
2022-11-09T07:49:51.746Z,5.95
2022-11-09T07:52:18.721Z,6.60
2022-11-09T07:54:52.464Z,6.47
2022-11-09T07:57:19.482Z,5.85
2022-11-09T07:59:52.779Z,6.82
2022-11-09T08:02:19.984Z,6.57
2022-11-09T08:04:46.964Z,6.53
2022-11-09T08:07:20.788Z,6.25
2022-11-09T08:09:47.717Z,6.40
2022-11-09T08:12:20.750Z,6.20
2022-11-09T08:14:53.819Z,16.20
2022-11-09T08:17:20.736Z,14.13
2022-11-09T08:19:53.800Z,8.43
2022-11-09T08:22:20.745Z,7.57
2022-11-09T08:24:47.695Z,8.02
2022-11-09T08:27:20.778Z,7.65
2022-11-09T08:29:47.705Z,9.10
2022-11-09T08:32:20.755Z,9.63
2022-11-09T08:34:48.414Z,9.00
2022-11-09T08:37:22.750Z,9.95
2022-11-09T08:39:49.788Z,10.00
2022-11-09T08:42:23.793Z,11.48
2022-11-09T08:44:50.724Z,11.32
2022-11-09T08:47:23.760Z,10.93
2022-11-09T08:49:56.770Z,10.65
2022-11-09T08:52:23.927Z,11.80
2022-11-09T08:54:57.782Z,11.00
2022-11-09T08:57:24.913Z,11.32
2022-11-09T08:59:58.847Z,12.20
2022-11-09T09:02:25.824Z,10.57
2022-11-09T09:04:59.843Z,11.98
2022-11-09T09:07:26.882Z,10.85
2022-11-09T09:10:00.789Z,10.25
2022-11-09T09:12:27.727Z,10.52
2022-11-09T09:15:01.795Z,9.90
2022-11-09T09:17:28.704Z,11.25
2022-11-09T09:20:01.815Z,10.98
2022-11-09T09:22:35.854Z,10.93
2022-11-09T09:25:02.863Z,10.90
2022-11-09T09:27:36.811Z,11.60
2022-11-09T09:30:05.078Z,12.75
2022-11-09T09:32:38.823Z,11.63
2022-11-09T09:35:06.391Z,13.27
2022-11-09T09:37:39.848Z,15.13
2022-11-09T09:40:07.441Z,19.75
2022-11-09T09:42:42.868Z,17.85
2022-11-09T09:45:27.128Z,16.35
2022-11-09T09:48:06.786Z,15.32
2022-11-09T09:51:35.878Z,16.65
2022-11-09T09:54:30.810Z,14.30
2022-11-09T09:57:06.821Z,15.15
2022-11-09T09:59:44.979Z,17.10
2022-11-09T10:02:31.812Z,16.88
2022-11-09T10:05:07.290Z,15.48
2022-11-09T10:07:48.887Z,14.18
2022-11-09T10:10:36.748Z,10.75
2022-11-09T10:13:24.827Z,10.20
2022-11-09T10:16:10.178Z,7.55
2022-11-09T10:19:14.957Z,10.98
2022-11-09T10:22:31.869Z,10.57
2022-11-09T10:25:37.566Z,11.00
2022-11-09T10:28:13.190Z,12.27
2022-11-09T10:30:46.850Z,11.45
2022-11-09T10:33:19.167Z,11.13
2022-11-09T10:36:15.816Z,11.43
2022-11-09T10:38:46.170Z,12.00
2022-11-09T10:41:41.874Z,12.00
2022-11-09T10:44:19.021Z,9.90
2022-11-09T10:47:08.863Z,9.02
2022-11-09T10:49:36.505Z,9.35
2022-11-09T10:52:10.865Z,9.48
2022-11-09T10:54:37.948Z,10.45
2022-11-09T10:57:23.859Z,9.80
2022-11-09T10:59:57.564Z,8.88
2022-11-09T11:02:33.872Z,8.38
2022-11-09T11:05:06.726Z,9.02
2022-11-09T11:07:41.913Z,10.45
2022-11-09T11:10:21.947Z,8.65
2022-11-09T11:13:28.874Z,8.45
2022-11-09T11:15:55.824Z,11.02
2022-11-09T11:18:31.865Z,12.07
2022-11-09T11:21:07.032Z,9.90
2022-11-09T11:23:40.945Z,10.07
2022-11-09T11:26:19.840Z,9.98
2022-11-09T11:28:58.904Z,8.80
2022-11-09T11:31:25.838Z,9.40
2022-11-09T11:33:58.869Z,9.23
2022-11-09T11:37:03.993Z,9.73
2022-11-09T11:39:59.881Z,8.77
2022-11-09T11:42:40.803Z,8.65
2022-11-09T11:45:47.901Z,8.85
2022-11-09T11:48:51.963Z,8.35
2022-11-09T11:51:41.890Z,8.13
2022-11-09T11:55:25.951Z,8.25
2022-11-09T11:58:23.583Z,8.13
2022-11-09T12:01:06.957Z,8.13
2022-11-09T12:03:50.824Z,10.73
2022-11-09T12:06:39.733Z,10.32
2022-11-09T12:09:44.298Z,9.77
2022-11-09T12:12:41.974Z,8.90
2022-11-09T12:15:38.094Z,8.60
2022-11-09T12:18:49.909Z,7.43
2022-11-09T12:21:28.977Z,7.00
2022-11-09T12:24:16.883Z,5.88
2022-11-09T12:27:30.585Z,6.40
2022-11-09T12:30:07.946Z,6.90
2022-11-09T12:33:11.934Z,6.68
2022-11-09T12:35:54.162Z,7.72
2022-11-09T12:38:43.909Z,7.80
2022-11-09T12:41:17.476Z,7.05
2022-11-09T12:44:25.905Z,8.77
2022-11-09T12:47:15.138Z,8.23
2022-11-09T12:49:51.947Z,6.70
2022-11-09T12:52:25.942Z,7.00
2022-11-09T12:54:52.872Z,6.65
2022-11-09T12:57:31.885Z,6.43
2022-11-09T13:00:00.504Z,4.40
2022-11-09T13:02:38.936Z,3.45
2022-11-09T13:05:08.554Z,3.38
2022-11-09T13:07:56.012Z,4.10
2022-11-09T13:10:36.812Z,3.83
2022-11-09T13:13:20.292Z,3.75
2022-11-09T13:16:31.314Z,4.25
2022-11-09T13:19:05.063Z,4.22
2022-11-09T13:21:34.211Z,4.20
2022-11-09T13:24:59.051Z,10.05
2022-11-09T13:27:42.137Z,5.03
2022-11-09T13:30:33.382Z,5.38
2022-11-09T13:33:07.016Z,5.72
2022-11-09T13:35:47.472Z,5.85
2022-11-09T13:38:29.399Z,7.25
2022-11-09T13:41:04.638Z,5.72
2022-11-09T13:43:43.435Z,5.93
2022-11-09T13:46:30.955Z,6.60
2022-11-09T13:49:07.638Z,6.63
2022-11-09T13:51:56.656Z,8.27
2022-11-09T13:54:37.700Z,6.90
2022-11-09T13:57:13.197Z,8.45
2022-11-09T13:59:49.909Z,6.95
2022-11-09T14:02:32.068Z,5.72
2022-11-09T14:05:04.634Z,6.20
2022-11-09T14:08:00.687Z,6.13
2022-11-09T14:11:12.096Z,5.03
2022-11-09T14:14:24.494Z,5.43
2022-11-09T14:17:26.065Z,6.95
2022-11-09T14:20:29.799Z,7.38
2022-11-09T14:22:57.457Z,7.25
2022-11-09T14:25:25.194Z,6.15
2022-11-09T14:28:02.333Z,4.85
2022-11-09T14:30:38.299Z,4.97
2022-11-09T14:33:31.990Z,5.35
2022-11-09T14:36:06.099Z,5.80
2022-11-09T14:38:43.825Z,6.07
2022-11-09T14:41:31.147Z,6.13
2022-11-09T14:44:00.717Z,5.63
2022-11-09T14:46:38.807Z,7.45
2022-11-09T14:49:13.783Z,9.68
2022-11-09T14:51:43.974Z,7.47
2022-11-09T14:54:20.013Z,8.85
2022-11-09T14:56:53.092Z,8.57
2022-11-09T14:59:32.054Z,9.98
2022-11-09T15:02:12.048Z,6.82
2022-11-09T15:05:42.119Z,7.30
2022-11-09T15:08:20.953Z,9.68
2022-11-09T15:11:00.310Z,11.85
2022-11-09T15:13:37.411Z,11.30
2022-11-09T15:16:12.167Z,14.57
2022-11-09T15:18:52.049Z,15.23
2022-11-09T15:21:19.971Z,10.55
2022-11-09T15:23:55.107Z,8.05
2022-11-09T15:26:46.029Z,9.35
2022-11-09T15:29:45.075Z,10.45
2022-11-09T15:32:18.913Z,14.23
2022-11-09T15:35:02.068Z,16.83
2022-11-09T15:37:45.050Z,17.58
2022-11-09T15:40:23.101Z,19.17
2022-11-09T15:42:50.219Z,20.48
2022-11-09T15:45:27.081Z,19.13
2022-11-09T15:48:08.100Z,18.60
2022-11-09T15:50:42.153Z,16.48
2022-11-09T15:53:11.803Z,16.33
2022-11-09T15:55:45.119Z,17.92
2022-11-09T15:58:14.082Z,19.67
2022-11-09T16:00:48.111Z,21.80
2022-11-09T16:03:22.128Z,20.50
2022-11-09T16:05:49.152Z,19.35
2022-11-09T16:08:23.689Z,17.83
2022-11-09T16:10:50.960Z,13.00
2022-11-09T16:13:24.111Z,9.55
2022-11-09T16:15:51.577Z,8.77
2022-11-09T16:18:26.281Z,9.32
2022-11-09T16:20:53.670Z,9.75
2022-11-09T16:23:28.927Z,9.43
2022-11-09T16:25:57.632Z,9.32
2022-11-09T16:28:33.004Z,9.50
2022-11-09T16:31:09.934Z,13.00
2022-11-09T16:33:44.112Z,13.52
2022-11-09T16:36:21.332Z,16.10
2022-11-09T16:38:58.534Z,16.38
2022-11-09T16:41:33.251Z,16.15
2022-11-09T16:44:10.862Z,19.80
2022-11-09T16:46:39.474Z,17.05
2022-11-09T16:49:15.948Z,17.52
2022-11-09T16:51:51.761Z,20.30
2022-11-09T16:54:20.107Z,23.02
2022-11-09T16:56:48.946Z,23.27
2022-11-09T16:59:25.874Z,26.48
2022-11-09T17:02:18.826Z,25.58
2022-11-09T17:04:58.222Z,21.25
2022-11-09T17:07:37.200Z,19.08
2022-11-09T17:10:19.944Z,19.05
2022-11-09T17:12:48.294Z,17.60
2022-11-09T17:15:32.959Z,21.33
2022-11-09T17:18:04.076Z,24.00
2022-11-09T17:20:40.909Z,26.05
2022-11-09T17:23:10.479Z,24.33
2022-11-09T17:25:45.972Z,21.67
2022-11-09T17:28:21.166Z,17.10
2022-11-09T17:31:06.936Z,15.35
2022-11-09T17:33:37.070Z,16.75
2022-11-09T17:36:35.205Z,17.02
2022-11-09T17:39:09.088Z,15.95
2022-11-09T17:41:46.396Z,14.85
2022-11-09T17:44:22.880Z,14.40
2022-11-09T17:46:51.627Z,15.00
2022-11-09T17:49:26.819Z,13.95
2022-11-09T17:51:55.036Z,13.23
2022-11-09T17:54:36.779Z,12.75
2022-11-09T17:57:06.361Z,11.57
2022-11-09T17:59:44.991Z,12.23
2022-11-09T18:02:13.526Z,10.75
2022-11-09T18:04:55.973Z,12.02
2022-11-09T18:07:33.039Z,11.40
2022-11-09T18:10:02.939Z,10.52
2022-11-09T18:12:39.825Z,13.60
2022-11-09T18:15:08.598Z,16.42
2022-11-09T18:17:44.624Z,16.48
2022-11-09T18:20:18.686Z,15.38
2022-11-09T18:22:49.359Z,15.10
2022-11-09T18:25:25.256Z,16.65
2022-11-09T18:27:54.461Z,15.48
2022-11-09T18:30:33.207Z,16.25
2022-11-09T18:33:06.329Z,15.90
2022-11-09T18:35:41.730Z,13.18
2022-11-09T18:38:19.949Z,13.05
2022-11-09T18:41:20.549Z,12.73
2022-11-09T18:43:48.661Z,14.45
2022-11-09T18:46:27.699Z,14.57
2022-11-09T18:48:57.089Z,13.15
2022-11-09T18:51:31.886Z,14.40
2022-11-09T18:54:05.085Z,17.10
2022-11-09T18:56:39.299Z,17.13
2022-11-09T18:59:06.373Z,19.42
2022-11-09T19:01:33.531Z,19.38
2022-11-09T19:04:07.161Z,20.90
2022-11-09T19:06:41.256Z,18.45
2022-11-09T19:09:13.847Z,18.35
2022-11-09T19:11:47.224Z,17.95
2022-11-09T19:14:21.202Z,17.05
2022-11-09T19:16:48.306Z,16.83
2022-11-09T19:19:22.259Z,17.15
2022-11-09T19:21:58.499Z,16.08
2022-11-09T19:24:33.234Z,14.40
2022-11-09T19:27:00.359Z,11.77
2022-11-09T19:29:34.172Z,12.13
2022-11-09T19:32:01.148Z,11.93
2022-11-09T19:34:28.144Z,11.88
2022-11-09T19:37:01.156Z,11.15
2022-11-09T19:39:33.440Z,10.70
2022-11-09T19:42:07.184Z,10.60
2022-11-09T19:44:34.174Z,11.23
2022-11-09T19:47:07.208Z,11.70
2022-11-09T19:49:34.122Z,11.38
2022-11-09T19:52:07.196Z,12.30
2022-11-09T19:54:34.194Z,11.07
2022-11-09T19:57:07.154Z,11.55
2022-11-09T19:59:40.182Z,11.75
2022-11-09T20:02:08.994Z,14.43
2022-11-09T20:04:42.222Z,14.55
2022-11-09T20:07:10.286Z,13.07
2022-11-09T20:09:37.261Z,13.55
2022-11-09T20:12:11.191Z,13.50
2022-11-09T20:14:38.242Z,11.93
2022-11-09T20:17:12.287Z,12.48
2022-11-09T20:19:39.555Z,11.57
2022-11-09T20:22:13.226Z,13.80
2022-11-09T20:24:40.261Z,12.30
2022-11-09T20:27:14.180Z,11.52
2022-11-09T20:29:41.270Z,11.52
2022-11-09T20:32:20.412Z,10.80
2022-11-09T20:34:48.642Z,11.05
2022-11-09T20:37:23.243Z,11.43
2022-11-09T20:39:57.187Z,11.82
2022-11-09T20:42:30.232Z,11.60
2022-11-09T20:44:57.211Z,11.60
2022-11-09T20:47:57.128Z,11.35
2022-11-09T20:50:17.565Z,11.70
2022-11-09T20:52:51.225Z,12.30
2022-11-09T20:55:18.161Z,11.63
2022-11-09T20:57:51.236Z,11.85
2022-11-09T21:00:24.172Z,12.82
2022-11-09T21:02:58.309Z,12.82
2022-11-09T21:05:32.227Z,11.40
2022-11-09T21:07:59.689Z,11.25
2022-11-09T21:10:33.296Z,11.52
2022-11-09T21:13:00.353Z,10.68
2022-11-09T21:15:34.305Z,12.52
2022-11-09T21:18:01.295Z,11.98
2022-11-09T21:20:34.221Z,11.73
2022-11-09T21:23:01.217Z,11.23
2022-11-09T21:25:28.180Z,11.45
2022-11-09T21:28:01.281Z,11.13
2022-11-09T21:30:28.233Z,12.50
2022-11-09T21:33:01.247Z,12.75
2022-11-09T21:35:28.145Z,15.52
2022-11-09T21:38:04.246Z,16.45
2022-11-09T21:40:37.299Z,20.20
2022-11-09T21:43:04.221Z,21.50
2022-11-09T21:45:37.284Z,16.10
2022-11-09T21:48:04.648Z,13.43
2022-11-09T21:50:31.592Z,12.07
2022-11-09T21:53:05.250Z,13.68
2022-11-09T21:55:32.085Z,12.75
2022-11-09T21:58:05.225Z,12.43
2022-11-09T22:00:32.125Z,12.43
2022-11-09T22:03:05.213Z,11.35
2022-11-09T22:05:32.106Z,12.02
2022-11-09T22:08:05.224Z,13.15
2022-11-09T22:10:32.177Z,13.02
2022-11-09T22:13:05.233Z,12.93
2022-11-09T22:15:38.221Z,19.33
2022-11-09T22:18:05.336Z,16.35
2022-11-09T22:20:39.254Z,13.90
2022-11-09T22:23:07.443Z,14.25
2022-11-09T22:25:46.773Z,13.70
2022-11-09T22:28:14.741Z,14.93
2022-11-09T22:30:48.249Z,15.73
2022-11-09T22:33:26.044Z,25.35
2022-11-09T22:36:02.237Z,23.33
2022-11-09T22:38:35.221Z,19.90
2022-11-09T22:41:06.364Z,18.33
2022-11-09T22:43:44.228Z,16.58
2022-11-09T22:46:23.286Z,15.52
2022-11-09T22:48:50.196Z,14.18
2022-11-09T22:51:24.256Z,13.82
2022-11-09T22:53:51.584Z,13.52
2022-11-09T22:56:25.268Z,12.40
2022-11-09T22:58:52.487Z,12.68
2022-11-09T23:01:27.347Z,13.45
2022-11-09T23:03:54.307Z,12.95
2022-11-09T23:06:28.336Z,13.77
2022-11-09T23:08:55.313Z,14.50
2022-11-09T23:11:29.263Z,14.50
2022-11-09T23:13:56.223Z,16.45
2022-11-09T23:16:30.300Z,15.57
2022-11-09T23:18:57.205Z,17.02
2022-11-09T23:21:29.596Z,16.88
2022-11-09T23:24:07.243Z,15.38
2022-11-09T23:26:34.440Z,15.10
2022-11-09T23:29:08.270Z,14.00
2022-11-09T23:31:35.160Z,14.98
2022-11-09T23:34:10.186Z,13.95
2022-11-09T23:36:37.269Z,14.00
2022-11-09T23:39:10.303Z,14.32
2022-11-09T23:41:37.153Z,14.27
2022-11-09T23:44:04.030Z,14.20
2022-11-09T23:46:37.291Z,13.82
2022-11-09T23:49:04.191Z,13.05
2022-11-09T23:51:37.296Z,12.57
2022-11-09T23:54:04.315Z,12.80
2022-11-09T23:56:37.304Z,13.65
2022-11-09T23:59:10.288Z,13.40
